createdAt,value
2018-12-21T00:00:10.112Z,100726.17
2018-12-21T00:00:41.256Z,100726.17
2018-12-21T00:01:12.368Z,100726.28
2018-12-21T00:01:43.485Z,100725.36
2018-12-21T00:02:14.597Z,100727.09
2018-12-21T00:02:45.701Z,100729.52
2018-12-21T00:03:16.801Z,100736.44
2018-12-21T00:03:47.913Z,100734.84
2018-12-21T00:04:19.040Z,100738.37
2018-12-21T00:04:50.160Z,100733.20
2018-12-21T00:05:21.270Z,100742.03
2018-12-21T00:05:52.468Z,100747.09
2018-12-21T00:06:23.591Z,100741.78
2018-12-21T00:06:54.709Z,100739.25
2018-12-21T00:07:25.818Z,100748.20
2018-12-21T00:07:58.707Z,100747.77
2018-12-21T00:08:30.058Z,100744.89
2018-12-21T00:09:01.162Z,100745.50
2018-12-21T00:09:32.260Z,100737.91
2018-12-21T00:10:03.365Z,100736.69
2018-12-21T00:10:34.463Z,100739.65
2018-12-21T00:11:05.605Z,100738.83
2018-12-21T00:11:36.718Z,100729.95
2018-12-21T00:12:07.817Z,100735.59
2018-12-21T00:12:38.967Z,100732.70
2018-12-21T00:13:10.072Z,100736.91
2018-12-21T00:13:41.175Z,100734.23
2018-12-21T00:14:12.276Z,100730.81
2018-12-21T00:14:43.415Z,100735.02
2018-12-21T00:15:14.517Z,100734.52
2018-12-21T00:15:45.638Z,100739.30
2018-12-21T00:16:16.736Z,100747.00
2018-12-21T00:16:47.840Z,100740.58
2018-12-21T00:17:18.956Z,100744.78
2018-12-21T00:17:50.056Z,100751.20
2018-12-21T00:18:21.166Z,100750.73
2018-12-21T00:18:52.272Z,100752.59
2018-12-21T00:19:23.372Z,100756.55
2018-12-21T00:19:54.484Z,100754.06
2018-12-21T00:20:25.588Z,100748.35
2018-12-21T00:20:56.728Z,100750.14
2018-12-21T00:21:27.861Z,100752.06
2018-12-21T00:21:58.974Z,100746.25
2018-12-21T00:22:30.078Z,100746.86
2018-12-21T00:23:01.229Z,100752.63
2018-12-21T00:23:32.344Z,100752.27
2018-12-21T00:24:03.450Z,100752.20
2018-12-21T00:24:34.563Z,100748.34
2018-12-21T00:25:05.678Z,100750.45
2018-12-21T00:25:36.781Z,100746.96
2018-12-21T00:26:07.893Z,100748.67
2018-12-21T00:26:39.009Z,100751.23
2018-12-21T00:27:10.138Z,100749.00
2018-12-21T00:27:41.243Z,100743.68
2018-12-21T00:28:12.447Z,100744.89
2018-12-21T00:28:43.587Z,100748.45
2018-12-21T00:29:14.684Z,100749.45
2018-12-21T00:29:45.790Z,100748.95
2018-12-21T00:30:16.957Z,100744.81
2018-12-21T00:30:48.073Z,100748.16
2018-12-21T00:31:19.245Z,100747.24
2018-12-21T00:31:50.358Z,100745.95
2018-12-21T00:32:21.505Z,100750.27
2018-12-21T00:32:52.630Z,100753.66
2018-12-21T00:33:23.788Z,100750.17
2018-12-21T00:33:54.898Z,100753.62
2018-12-21T00:34:26.012Z,100749.02
2018-12-21T00:34:57.125Z,100750.80
2018-12-21T00:35:28.253Z,100755.58
2018-12-21T00:35:59.361Z,100760.50
2018-12-21T00:36:30.503Z,100759.35
2018-12-21T00:37:01.608Z,100766.30
2018-12-21T00:37:32.800Z,100767.27
2018-12-21T00:38:05.659Z,100764.69
2018-12-21T00:38:37.013Z,100653.73
2018-12-21T00:39:08.154Z,100764.30
2018-12-21T00:39:39.278Z,100766.44
2018-12-21T00:40:10.384Z,100758.73
2018-12-21T00:40:41.497Z,100763.88
2018-12-21T00:41:12.610Z,100759.55
2018-12-21T00:41:43.756Z,100761.23
2018-12-21T00:42:14.864Z,100755.92
2018-12-21T00:42:46.093Z,100760.96
2018-12-21T00:43:17.208Z,100764.35
2018-12-21T00:43:48.322Z,100759.67
2018-12-21T00:44:19.428Z,100763.99
2018-12-21T00:44:50.787Z,100772.45
2018-12-21T00:45:21.965Z,100775.17
2018-12-21T00:45:53.072Z,100770.71
2018-12-21T00:46:24.185Z,100770.53
2018-12-21T00:46:55.336Z,100772.25
2018-12-21T00:47:26.458Z,100776.59
2018-12-21T00:47:57.598Z,100773.67
2018-12-21T00:48:28.718Z,100767.61
2018-12-21T00:48:59.824Z,100768.72
2018-12-21T00:49:30.921Z,100768.18
2018-12-21T00:50:02.048Z,100715.08
2018-12-21T00:50:33.230Z,100768.00
2018-12-21T00:51:04.328Z,100770.84
2018-12-21T00:51:35.438Z,100771.28
2018-12-21T00:52:06.540Z,100769.95
2018-12-21T00:52:37.708Z,100768.98
2018-12-21T00:53:08.842Z,100771.98
2018-12-21T00:53:39.944Z,100771.56
2018-12-21T00:54:11.064Z,100772.48
2018-12-21T00:54:42.164Z,100754.88
2018-12-21T00:55:13.260Z,100774.20
2018-12-21T00:55:44.421Z,100772.45
2018-12-21T00:56:15.528Z,100771.56
2018-12-21T00:56:46.641Z,100766.06
2018-12-21T00:57:17.745Z,100769.92
2018-12-21T00:57:48.958Z,100762.22
2018-12-21T00:58:20.071Z,100767.42
2018-12-21T00:58:51.183Z,100767.00
2018-12-21T00:59:22.295Z,100768.35
2018-12-21T00:59:53.396Z,100780.34
2018-12-21T01:00:24.505Z,100776.88
2018-12-21T01:00:55.645Z,100780.80
2018-12-21T01:01:26.788Z,100782.13
2018-12-21T01:01:57.891Z,100786.44
2018-12-21T01:02:28.995Z,100787.14
2018-12-21T01:03:00.102Z,100783.26
2018-12-21T01:03:31.210Z,100783.37
2018-12-21T01:04:02.337Z,100787.22
2018-12-21T01:04:33.441Z,100783.08
2018-12-21T01:05:04.548Z,100782.77
2018-12-21T01:05:35.660Z,100785.41
2018-12-21T01:06:06.778Z,100786.27
2018-12-21T01:06:37.913Z,100784.55
2018-12-21T01:07:09.018Z,100781.52
2018-12-21T01:07:40.119Z,100780.70
2018-12-21T01:08:11.224Z,100774.67
2018-12-21T01:08:42.325Z,100776.56
2018-12-21T01:09:13.454Z,100766.75
2018-12-21T01:09:44.568Z,100765.47
2018-12-21T01:10:15.780Z,100759.91
2018-12-21T01:10:46.903Z,100765.97
2018-12-21T01:11:18.009Z,100757.80
2018-12-21T01:11:49.116Z,100758.66
2018-12-21T01:12:20.346Z,100757.70
2018-12-21T01:12:51.467Z,100760.55
2018-12-21T01:13:22.582Z,100761.80
2018-12-21T01:13:53.700Z,100760.94
2018-12-21T01:14:24.806Z,100767.86
2018-12-21T01:14:55.925Z,100767.00
2018-12-21T01:15:27.070Z,100738.33
2018-12-21T01:15:58.171Z,100757.66
2018-12-21T01:16:29.313Z,100761.66
2018-12-21T01:17:00.419Z,100755.70
2018-12-21T01:17:31.730Z,100755.27
2018-12-21T01:18:02.844Z,100750.95
2018-12-21T01:18:33.951Z,100748.52
2018-12-21T01:19:05.060Z,100741.28
2018-12-21T01:19:36.184Z,100743.75
2018-12-21T01:20:07.379Z,100739.89
2018-12-21T01:20:38.557Z,100731.69
2018-12-21T01:21:09.745Z,100735.72
2018-12-21T01:21:40.856Z,100731.47
2018-12-21T01:22:12.016Z,100732.33
2018-12-21T01:22:43.129Z,100730.19
2018-12-21T01:23:14.260Z,100742.53
2018-12-21T01:23:45.388Z,100742.47
2018-12-21T01:24:16.493Z,100742.86
2018-12-21T01:24:47.642Z,100748.78
2018-12-21T01:25:18.796Z,100746.53
2018-12-21T01:25:49.941Z,100749.74
2018-12-21T01:26:21.064Z,100754.56
2018-12-21T01:26:52.184Z,100750.56
2018-12-21T01:27:23.313Z,100749.88
2018-12-21T01:27:54.471Z,100750.80
2018-12-21T01:28:25.570Z,100753.84
2018-12-21T01:28:56.714Z,100763.28
2018-12-21T01:29:27.881Z,100766.36
2018-12-21T01:29:58.992Z,100768.95
2018-12-21T01:30:30.096Z,100773.27
2018-12-21T01:31:01.205Z,100772.03
2018-12-21T01:31:32.355Z,100770.09
2018-12-21T01:32:03.455Z,100769.37
2018-12-21T01:32:34.560Z,100765.52
2018-12-21T01:33:05.666Z,100761.66
2018-12-21T01:33:36.781Z,100752.80
2018-12-21T01:34:07.950Z,100754.83
2018-12-21T01:34:39.069Z,100753.91
2018-12-21T01:35:10.261Z,100749.45
2018-12-21T01:35:41.376Z,100746.70
2018-12-21T01:36:12.591Z,100752.27
2018-12-21T01:36:43.717Z,100750.13
2018-12-21T01:37:14.900Z,100745.28
2018-12-21T01:37:46.004Z,100745.25
2018-12-21T01:38:17.109Z,100748.20
2018-12-21T01:38:48.208Z,100745.61
2018-12-21T01:39:19.309Z,100745.67
2018-12-21T01:39:50.444Z,100748.25
2018-12-21T01:40:21.556Z,100744.32
2018-12-21T01:40:52.655Z,100749.31
2018-12-21T01:41:23.759Z,100756.05
2018-12-21T01:41:54.869Z,100754.73
2018-12-21T01:42:25.963Z,100755.20
2018-12-21T01:42:57.079Z,100752.20
2018-12-21T01:43:28.208Z,100752.98
2018-12-21T01:43:59.299Z,100754.52
2018-12-21T01:44:30.433Z,100756.98
2018-12-21T01:45:01.527Z,100756.90
2018-12-21T01:45:32.631Z,100753.05
2018-12-21T01:46:03.735Z,100756.90
2018-12-21T01:46:34.848Z,100759.47
2018-12-21T01:47:05.948Z,100756.08
2018-12-21T01:47:37.075Z,100749.20
2018-12-21T01:48:08.172Z,100755.69
2018-12-21T01:48:39.281Z,100754.95
2018-12-21T01:49:10.440Z,100757.05
2018-12-21T01:49:41.546Z,100754.88
2018-12-21T01:50:12.656Z,100745.42
2018-12-21T01:50:43.766Z,100753.20
2018-12-21T01:51:14.999Z,100748.84
2018-12-21T01:51:47.162Z,100750.91
2018-12-21T01:52:18.689Z,100756.36
2018-12-21T01:52:49.806Z,100748.16
2018-12-21T01:53:20.918Z,100746.91
2018-12-21T01:53:52.029Z,100743.46
2018-12-21T01:54:23.139Z,100738.39
2018-12-21T01:54:54.257Z,100747.23
2018-12-21T01:55:25.394Z,100737.28
2018-12-21T01:55:56.509Z,100741.95
2018-12-21T01:56:27.613Z,100736.00
2018-12-21T01:56:58.779Z,100742.14
2018-12-21T01:57:29.902Z,100735.36
2018-12-21T01:58:01.047Z,100738.86
2018-12-21T01:58:32.143Z,100739.36
2018-12-21T01:59:03.285Z,100735.94
2018-12-21T01:59:34.393Z,100736.02
2018-12-21T02:00:05.504Z,100731.27
2018-12-21T02:00:36.621Z,100737.65
2018-12-21T02:01:07.721Z,100730.77
2018-12-21T02:01:38.826Z,100727.74
2018-12-21T02:02:09.971Z,100719.69
2018-12-21T02:02:41.075Z,100727.92
2018-12-21T02:03:12.180Z,100721.14
2018-12-21T02:03:43.281Z,100727.20
2018-12-21T02:04:14.414Z,100727.28
2018-12-21T02:04:45.538Z,100728.20
2018-12-21T02:05:16.642Z,100728.24
2018-12-21T02:05:47.750Z,100729.66
2018-12-21T02:06:18.853Z,100731.84
2018-12-21T02:06:49.996Z,100727.09
2018-12-21T02:07:21.108Z,100729.70
2018-12-21T02:07:52.212Z,100726.70
2018-12-21T02:08:23.317Z,100724.20
2018-12-21T02:08:54.456Z,100725.13
2018-12-21T02:09:25.560Z,100723.45
2018-12-21T02:09:56.670Z,100722.20
2018-12-21T02:10:27.774Z,100724.31
2018-12-21T02:10:58.913Z,100719.97
2018-12-21T02:11:30.044Z,100723.03
2018-12-21T02:12:01.149Z,100719.64
2018-12-21T02:12:32.284Z,100716.68
2018-12-21T02:13:03.428Z,100721.75
2018-12-21T02:13:34.624Z,100718.28
2018-12-21T02:14:05.726Z,100716.40
2018-12-21T02:14:36.837Z,100714.44
2018-12-21T02:15:07.941Z,100713.98
2018-12-21T02:15:39.083Z,100710.95
2018-12-21T02:16:10.185Z,100711.80
2018-12-21T02:16:41.325Z,100716.08
2018-12-21T02:17:12.429Z,100716.97
2018-12-21T02:17:43.539Z,100713.16
2018-12-21T02:18:14.669Z,100714.38
2018-12-21T02:18:45.780Z,100719.36
2018-12-21T02:19:16.902Z,100712.05
2018-12-21T02:19:48.046Z,100714.13
2018-12-21T02:20:19.154Z,100718.40
2018-12-21T02:20:50.253Z,100721.78
2018-12-21T02:21:21.396Z,100723.00
2018-12-21T02:21:55.982Z,100727.66
2018-12-21T02:22:25.668Z,100724.99
2018-12-21T02:22:56.770Z,100728.84
2018-12-21T02:23:27.876Z,100728.02
2018-12-21T02:23:58.988Z,100729.45
2018-12-21T02:24:30.094Z,100725.17
2018-12-21T02:25:01.203Z,100721.78
2018-12-21T02:25:32.346Z,100721.43
2018-12-21T02:26:03.506Z,100720.14
2018-12-21T02:26:34.708Z,100727.24
2018-12-21T02:27:05.825Z,100729.48
2018-12-21T02:27:36.927Z,100732.88
2018-12-21T02:28:08.032Z,100729.09
2018-12-21T02:28:39.163Z,100730.06
2018-12-21T02:29:10.279Z,100735.27
2018-12-21T02:29:41.382Z,100734.34
2018-12-21T02:30:12.493Z,100738.55
2018-12-21T02:30:43.603Z,100733.59
2018-12-21T02:31:14.722Z,100735.47
2018-12-21T02:31:45.854Z,100731.37
2018-12-21T02:32:16.984Z,100732.80
2018-12-21T02:32:48.214Z,100728.05
2018-12-21T02:33:19.353Z,100727.02
2018-12-21T02:33:50.474Z,100729.05
2018-12-21T02:34:21.633Z,100724.24
2018-12-21T02:34:52.757Z,100723.71
2018-12-21T02:35:23.864Z,100721.08
2018-12-21T02:35:54.969Z,100721.08
2018-12-21T02:36:26.090Z,100721.50
2018-12-21T02:36:57.205Z,100721.86
2018-12-21T02:37:28.328Z,100715.44
2018-12-21T02:37:59.437Z,100719.72
2018-12-21T02:38:30.580Z,100721.86
2018-12-21T02:39:01.695Z,100723.97
2018-12-21T02:39:32.829Z,100731.48
2018-12-21T02:40:03.988Z,100723.36
2018-12-21T02:40:35.114Z,100732.05
2018-12-21T02:41:06.301Z,100733.02
2018-12-21T02:41:38.376Z,100734.73
2018-12-21T02:42:09.526Z,100727.88
2018-12-21T02:42:40.762Z,100726.70
2018-12-21T02:43:11.882Z,100731.95
2018-12-21T02:43:42.993Z,100726.34
2018-12-21T02:44:14.099Z,100726.34
2018-12-21T02:44:45.258Z,100732.41
2018-12-21T02:45:17.557Z,100729.45
2018-12-21T02:45:48.675Z,100726.95
2018-12-21T02:46:19.789Z,100722.24
2018-12-21T02:46:50.899Z,100730.02
2018-12-21T02:47:22.014Z,100722.67
2018-12-21T02:47:53.126Z,100724.77
2018-12-21T02:48:24.234Z,100725.23
2018-12-21T02:48:55.348Z,100718.72
2018-12-21T02:49:26.472Z,100720.42
2018-12-21T02:49:57.597Z,100725.59
2018-12-21T02:50:28.744Z,100725.70
2018-12-21T02:50:59.904Z,100720.10
2018-12-21T02:51:31.003Z,100724.48
2018-12-21T02:52:05.696Z,100723.66
2018-12-21T02:52:35.299Z,100721.91
2018-12-21T02:53:06.417Z,100714.94
2018-12-21T02:53:37.529Z,100724.87
2018-12-21T02:54:08.643Z,100722.67
2018-12-21T02:54:39.776Z,100722.99
2018-12-21T02:55:10.991Z,100719.57
2018-12-21T02:55:42.149Z,100720.86
2018-12-21T02:56:13.259Z,100721.25
2018-12-21T02:56:44.368Z,100723.42
2018-12-21T02:57:15.497Z,100722.63
2018-12-21T02:57:46.606Z,100720.92
2018-12-21T02:58:17.721Z,100717.53
2018-12-21T02:58:48.836Z,100720.56
2018-12-21T02:59:19.955Z,100722.20
2018-12-21T02:59:51.075Z,100716.71
2018-12-21T03:00:22.240Z,100722.67
2018-12-21T03:00:53.356Z,100713.22
2018-12-21T03:01:24.462Z,100709.80
2018-12-21T03:01:55.587Z,100713.32
2018-12-21T03:02:26.693Z,100710.75
2018-12-21T03:02:57.804Z,100711.61
2018-12-21T03:03:28.911Z,100713.25
2018-12-21T03:04:00.017Z,100709.90
2018-12-21T03:04:31.134Z,100712.89
2018-12-21T03:05:02.244Z,100714.21
2018-12-21T03:05:33.378Z,100714.67
2018-12-21T03:06:04.489Z,100717.70
2018-12-21T03:06:35.614Z,100710.03
2018-12-21T03:07:06.734Z,100716.92
2018-12-21T03:07:37.852Z,100712.28
2018-12-21T03:08:08.972Z,100717.88
2018-12-21T03:08:40.086Z,100715.84
2018-12-21T03:09:11.210Z,100714.98
2018-12-21T03:09:42.341Z,100721.44
2018-12-21T03:10:13.464Z,100725.78
2018-12-21T03:10:44.602Z,100721.97
2018-12-21T03:11:54.341Z,100725.09
2018-12-21T03:12:25.454Z,100723.35
2018-12-21T03:12:56.572Z,100720.68
2018-12-21T03:13:27.695Z,100724.07
2018-12-21T03:13:58.848Z,100724.93
2018-12-21T03:14:29.960Z,100724.86
2018-12-21T03:15:01.067Z,100726.61
2018-12-21T03:15:32.209Z,100721.97
2018-12-21T03:16:03.324Z,100727.20
2018-12-21T03:16:34.447Z,100725.52
2018-12-21T03:17:05.559Z,100720.45
2018-12-21T03:17:36.674Z,100722.13
2018-12-21T03:18:07.782Z,100719.20
2018-12-21T03:18:38.902Z,100722.20
2018-12-21T03:19:10.009Z,100721.34
2018-12-21T03:19:41.128Z,100719.23
2018-12-21T03:20:12.256Z,100724.83
2018-12-21T03:20:43.410Z,100725.27
2018-12-21T03:21:14.512Z,100723.02
2018-12-21T03:21:45.683Z,100723.38
2018-12-21T03:22:16.786Z,100720.02
2018-12-21T03:22:47.914Z,100723.48
2018-12-21T03:23:19.029Z,100716.96
2018-12-21T03:23:50.271Z,100719.10
2018-12-21T03:24:21.390Z,100720.78
2018-12-21T03:24:52.564Z,100717.09
2018-12-21T03:25:23.686Z,100719.91
2018-12-21T03:25:54.820Z,100721.45
2018-12-21T03:26:25.991Z,100722.53
2018-12-21T03:26:57.147Z,100721.57
2018-12-21T03:27:28.356Z,100720.46
2018-12-21T03:27:59.468Z,100721.45
2018-12-21T03:28:30.645Z,100715.67
2018-12-21T03:29:01.751Z,100716.66
2018-12-21T03:29:32.944Z,100721.44
2018-12-21T03:30:04.210Z,100717.25
2018-12-21T03:30:35.301Z,100715.15
2018-12-21T03:31:06.410Z,100722.03
2018-12-21T03:31:37.566Z,100721.61
2018-12-21T03:32:08.680Z,100717.75
2018-12-21T03:32:39.796Z,100721.61
2018-12-21T03:33:10.897Z,100718.25
2018-12-21T03:33:42.019Z,100714.85
2018-12-21T03:34:13.150Z,100718.28
2018-12-21T03:34:44.294Z,100716.53
2018-12-21T03:35:15.421Z,100716.11
2018-12-21T03:35:46.544Z,100716.96
2018-12-21T03:36:17.661Z,100717.82
2018-12-21T03:36:48.780Z,100724.34
2018-12-21T03:37:19.937Z,100721.41
2018-12-21T03:37:51.087Z,100721.84
2018-12-21T03:38:22.193Z,100715.05
2018-12-21T03:38:53.332Z,100718.55
2018-12-21T03:39:24.429Z,100717.66
2018-12-21T03:39:55.542Z,100721.58
2018-12-21T03:40:26.645Z,100716.83
2018-12-21T03:40:57.752Z,100713.87
2018-12-21T03:41:28.868Z,100716.83
2018-12-21T03:42:00.015Z,100719.00
2018-12-21T03:42:31.129Z,100713.90
2018-12-21T03:43:02.284Z,100719.03
2018-12-21T03:43:33.397Z,100715.22
2018-12-21T03:44:04.539Z,100719.13
2018-12-21T03:44:35.656Z,100716.56
2018-12-21T03:45:06.808Z,100719.10
2018-12-21T03:45:37.933Z,100718.25
2018-12-21T03:46:09.038Z,100722.00
2018-12-21T03:46:40.153Z,100720.72
2018-12-21T03:47:11.261Z,100722.43
2018-12-21T03:47:42.433Z,100718.58
2018-12-21T03:48:13.536Z,100723.75
2018-12-21T03:48:44.683Z,100717.33
2018-12-21T03:49:15.834Z,100717.75
2018-12-21T03:49:50.083Z,100721.58
2018-12-21T03:50:21.190Z,100720.72
2018-12-21T03:50:52.299Z,100720.33
2018-12-21T03:51:23.408Z,100721.17
2018-12-21T03:51:54.531Z,100720.36
2018-12-21T03:52:25.674Z,100720.36
2018-12-21T03:52:56.780Z,100722.95
2018-12-21T03:53:27.883Z,100720.39
2018-12-21T03:53:59.005Z,100715.19
2018-12-21T03:54:30.119Z,100719.83
2018-12-21T03:55:01.224Z,100720.12
2018-12-21T03:55:32.361Z,100715.25
2018-12-21T03:56:03.465Z,100717.65
2018-12-21T03:56:34.603Z,100714.06
2018-12-21T03:57:05.722Z,100716.13
2018-12-21T03:57:36.837Z,100714.38
2018-12-21T03:58:07.945Z,100716.13
2018-12-21T03:58:39.094Z,100715.31
2018-12-21T03:59:11.178Z,100714.02
2018-12-21T03:59:43.335Z,100714.52
2018-12-21T04:00:14.486Z,100716.30
2018-12-21T04:00:45.664Z,100717.12
2018-12-21T04:01:16.782Z,100715.45
2018-12-21T04:01:47.897Z,100714.59
2018-12-21T04:02:20.895Z,100718.44
2018-12-21T04:02:52.340Z,100720.16
2018-12-21T04:03:23.446Z,100716.16
2018-12-21T04:03:54.600Z,100719.16
2018-12-21T04:04:25.707Z,100721.37
2018-12-21T04:04:56.818Z,100723.94
2018-12-21T04:05:27.941Z,100723.05
2018-12-21T04:05:59.050Z,100727.22
2018-12-21T04:06:30.161Z,100723.66
2018-12-21T04:07:01.288Z,100726.16
2018-12-21T04:07:32.399Z,100724.38
2018-12-21T04:08:03.502Z,100727.63
2018-12-21T04:08:34.641Z,100724.56
2018-12-21T04:09:05.969Z,100726.20
2018-12-21T04:09:37.089Z,100729.23
2018-12-21T04:10:08.209Z,100725.06
2018-12-21T04:10:39.325Z,100724.20
2018-12-21T04:11:10.446Z,100725.53
2018-12-21T04:11:41.578Z,100724.74
2018-12-21T04:12:12.810Z,100728.63
2018-12-21T04:12:43.938Z,100722.67
2018-12-21T04:13:15.049Z,100723.66
2018-12-21T04:13:46.176Z,100724.95
2018-12-21T04:14:17.342Z,100721.98
2018-12-21T04:14:48.457Z,100719.48
2018-12-21T04:15:19.590Z,100718.23
2018-12-21T04:15:50.701Z,100723.05
2018-12-21T04:16:21.839Z,100721.37
2018-12-21T04:16:52.960Z,100713.23
2018-12-21T04:17:24.068Z,100716.59
2018-12-21T04:17:55.191Z,100714.38
2018-12-21T04:18:26.344Z,100717.77
2018-12-21T04:18:57.472Z,100720.34
2018-12-21T04:19:28.612Z,100715.03
2018-12-21T04:19:59.722Z,100722.31
2018-12-21T04:20:30.886Z,100722.31
2018-12-21T04:21:02.109Z,100717.60
2018-12-21T04:21:33.259Z,100726.59
2018-12-21T04:22:04.366Z,100722.34
2018-12-21T04:22:35.477Z,100733.11
2018-12-21T04:23:06.578Z,100733.01
2018-12-21T04:23:37.695Z,100732.19
2018-12-21T04:24:08.807Z,100736.83
2018-12-21T04:24:39.911Z,100738.04
2018-12-21T04:25:11.025Z,100735.87
2018-12-21T04:25:42.185Z,100739.00
2018-12-21T04:26:13.298Z,100737.33
2018-12-21T04:26:44.416Z,100738.72
2018-12-21T04:27:15.529Z,100736.97
2018-12-21T04:27:46.648Z,100735.25
2018-12-21T04:28:17.817Z,100736.14
2018-12-21T04:28:48.920Z,100734.86
2018-12-21T04:29:20.041Z,100736.97
2018-12-21T04:29:51.159Z,100729.27
2018-12-21T04:30:22.266Z,100740.03
2018-12-21T04:30:54.549Z,100735.75
2018-12-21T04:31:25.692Z,100739.57
2018-12-21T04:31:56.828Z,100737.43
2018-12-21T04:32:27.935Z,100736.18
2018-12-21T04:32:59.044Z,100737.89
2018-12-21T04:33:30.164Z,100734.05
2018-12-21T04:34:01.283Z,100738.32
2018-12-21T04:34:32.409Z,100741.28
2018-12-21T04:35:03.544Z,100739.08
2018-12-21T04:35:34.814Z,100737.33
2018-12-21T04:36:05.975Z,100741.64
2018-12-21T04:36:37.216Z,100738.22
2018-12-21T04:37:08.332Z,100744.25
2018-12-21T04:37:39.476Z,100736.64
2018-12-21T04:38:10.579Z,100740.07
2018-12-21T04:38:41.722Z,100740.17
2018-12-21T04:39:12.933Z,100744.42
2018-12-21T04:39:44.041Z,100743.95
2018-12-21T04:40:15.720Z,100738.39
2018-12-21T04:40:46.913Z,100743.85
2018-12-21T04:41:18.074Z,100742.56
2018-12-21T04:41:49.257Z,100744.67
2018-12-21T04:42:20.393Z,100737.33
2018-12-21T04:42:51.534Z,100743.46
2018-12-21T04:43:22.633Z,100740.89
2018-12-21T04:43:53.736Z,100740.17
2018-12-21T04:44:24.873Z,100738.49
2018-12-21T04:44:56.154Z,100736.81
2018-12-21T04:45:27.355Z,100733.36
2018-12-21T04:45:58.519Z,100737.27
2018-12-21T04:46:29.623Z,100738.13
2018-12-21T04:47:00.726Z,100736.88
2018-12-21T04:47:31.883Z,100741.16
2018-12-21T04:48:02.993Z,100737.70
2018-12-21T04:48:36.158Z,100733.85
2018-12-21T04:49:07.275Z,100735.36
2018-12-21T04:49:38.397Z,100738.32
2018-12-21T04:50:09.509Z,100737.93
2018-12-21T04:50:40.666Z,100735.82
2018-12-21T04:51:11.772Z,100738.42
2018-12-21T04:51:42.880Z,100735.75
2018-12-21T04:52:13.988Z,100736.64
2018-12-21T04:52:45.087Z,100737.96
2018-12-21T04:53:16.773Z,100737.11
2018-12-21T04:53:48.664Z,100737.96
2018-12-21T04:54:19.778Z,100734.89
2018-12-21T04:54:50.902Z,100736.14
2018-12-21T04:55:22.045Z,100740.07
2018-12-21T04:55:53.144Z,100691.87
2018-12-21T04:56:24.256Z,100734.11
2018-12-21T04:56:55.371Z,100734.41
2018-12-21T04:57:26.530Z,100733.11
2018-12-21T04:57:57.648Z,100732.58
2018-12-21T04:58:28.762Z,100729.23
2018-12-21T04:58:59.870Z,100730.97
2018-12-21T04:59:30.990Z,100729.63
2018-12-21T05:00:02.231Z,100729.23
2018-12-21T05:00:34.897Z,100729.27
2018-12-21T05:01:06.011Z,100727.63
2018-12-21T05:01:37.157Z,100728.91
2018-12-21T05:02:08.333Z,100730.19
2018-12-21T05:02:39.443Z,100725.44
2018-12-21T05:03:10.575Z,100728.34
2018-12-21T05:03:41.700Z,100730.02
2018-12-21T05:04:19.700Z,100728.66
2018-12-21T05:04:45.955Z,100726.06
2018-12-21T05:05:17.076Z,100724.31
2018-12-21T05:05:48.212Z,100720.92
2018-12-21T05:06:19.338Z,100724.31
2018-12-21T05:06:50.547Z,100720.92
2018-12-21T05:07:21.692Z,100724.38
2018-12-21T05:07:52.852Z,100725.23
2018-12-21T05:08:23.966Z,100722.73
2018-12-21T05:08:55.074Z,100725.37
2018-12-21T05:09:26.183Z,100716.45
2018-12-21T05:09:57.288Z,100715.67
2018-12-21T05:10:28.394Z,100719.55
2018-12-21T05:10:59.504Z,100717.05
2018-12-21T05:11:30.613Z,100717.05
2018-12-21T05:12:01.763Z,100715.31
2018-12-21T05:12:32.868Z,100710.53
2018-12-21T05:13:03.974Z,100711.81
2018-12-21T05:13:35.077Z,100707.96
2018-12-21T05:14:07.897Z,100709.74
2018-12-21T05:14:39.351Z,100709.38
2018-12-21T05:15:10.462Z,100711.23
2018-12-21T05:15:41.567Z,100709.13
2018-12-21T05:16:12.691Z,100709.52
2018-12-21T05:16:43.799Z,100714.19
2018-12-21T05:17:14.972Z,100713.73
2018-12-21T05:17:46.072Z,100712.41
2018-12-21T05:18:17.211Z,100714.09
2018-12-21T05:18:48.348Z,100715.37
2018-12-21T05:19:19.460Z,100708.53
2018-12-21T05:19:50.714Z,100711.42
2018-12-21T05:20:21.833Z,100710.53
2018-12-21T05:20:52.953Z,100708.42
2018-12-21T05:21:24.061Z,100710.63
2018-12-21T05:21:55.183Z,100706.84
2018-12-21T05:22:26.786Z,100712.02
2018-12-21T05:22:57.945Z,100707.84
2018-12-21T05:23:29.052Z,100701.87
2018-12-21T05:24:00.174Z,100704.09
2018-12-21T05:24:31.289Z,100707.15
2018-12-21T05:25:02.387Z,100708.00
2018-12-21T05:25:33.493Z,100705.44
2018-12-21T05:26:04.673Z,100707.64
2018-12-21T05:26:35.808Z,100709.39
2018-12-21T05:27:06.921Z,100706.42
2018-12-21T05:27:38.033Z,100705.92
2018-12-21T05:28:09.142Z,100713.60
2018-12-21T05:28:40.249Z,100709.75
2018-12-21T05:29:11.377Z,100708.92
2018-12-21T05:29:43.980Z,100710.67
2018-12-21T05:30:15.188Z,100714.13
2018-12-21T05:30:46.349Z,100714.69
2018-12-21T05:31:17.481Z,100714.23
2018-12-21T05:31:48.617Z,100711.66
2018-12-21T05:32:19.767Z,100712.02
2018-12-21T05:32:50.893Z,100711.20
2018-12-21T05:33:22.003Z,100706.06
2018-12-21T05:33:53.112Z,100709.13
2018-12-21T05:34:24.221Z,100709.16
2018-12-21T05:34:55.329Z,100705.80
2018-12-21T05:35:26.481Z,100708.43
2018-12-21T05:35:57.618Z,100707.51
2018-12-21T05:36:28.733Z,100707.51
2018-12-21T05:36:59.832Z,100706.22
2018-12-21T05:37:30.943Z,100709.22
2018-12-21T05:38:02.062Z,100707.51
2018-12-21T05:38:33.178Z,100705.77
2018-12-21T05:39:06.167Z,100707.94
2018-12-21T05:39:37.321Z,100710.44
2018-12-21T05:40:08.457Z,100708.33
2018-12-21T05:40:40.914Z,100705.30
2018-12-21T05:41:12.052Z,100710.84
2018-12-21T05:41:43.162Z,100705.53
2018-12-21T05:42:14.263Z,100708.92
2018-12-21T05:42:45.386Z,100709.29
2018-12-21T05:43:16.497Z,100707.15
2018-12-21T05:43:47.636Z,100704.91
2018-12-21T05:44:18.772Z,100705.66
2018-12-21T05:44:50.016Z,100706.48
2018-12-21T05:45:21.134Z,100705.17
2018-12-21T05:45:52.258Z,100702.20
2018-12-21T05:46:23.461Z,100700.72
2018-12-21T05:46:56.375Z,100704.57
2018-12-21T05:47:27.558Z,100703.65
2018-12-21T05:47:58.673Z,100706.67
2018-12-21T05:48:29.792Z,100702.66
2018-12-21T05:49:00.893Z,100705.98
2018-12-21T05:49:32.010Z,100702.91
2018-12-21T05:50:03.134Z,100679.25
2018-12-21T05:50:34.253Z,100708.80
2018-12-21T05:51:05.380Z,100712.66
2018-12-21T05:51:36.534Z,100707.13
2018-12-21T05:52:07.648Z,100712.30
2018-12-21T05:52:38.801Z,100710.66
2018-12-21T05:53:10.607Z,100709.83
2018-12-21T05:53:41.715Z,100709.01
2018-12-21T05:54:13.978Z,100668.59
2018-12-21T05:54:45.076Z,100711.92
2018-12-21T05:55:16.183Z,100709.52
2018-12-21T05:55:47.316Z,100710.47
2018-12-21T05:56:18.423Z,100714.75